Kinrikimaru — JL6545 — position and weather

sailwx.info

Track history (hours):
 
Tides and Currents Weather Stations Pressure Air Temp Water Temp Dewpoint Dewpoint Depression Visibility Wind Speed Wind Dir Waves Ship Positions

Kinrikimaru

Last reported at 2016-Jun-21 13:33 UTC. Time now 2016-Jun-30 23:09 UTC.
Position N 34°01' E 134°54'.
Warning: this ship's position is 9 days out of date.

Length 76 m; draft 3.5 m.

Type: Cargo ship. MMSI: 431500615.

Date/timePositionNaut miles runAvg speedWind from/ knotsBaromVisibWave heightAir tempDewpointWater temp
2016-Jun-21 13:33N 34°01' E 134°54'2410.5
2016-Jun-21 11:13N 34°24' E 135°03'812.0
2016-Jun-21 10:33N 34°29' E 135°10'1211.9
2016-Jun-21 09:33N 34°36' E 135°22'3 3.1
2016-Jun-21 08:33N 34°35' E 135°26'0 0.0
2016-Jun-21 07:32N 34°35' E 135°26'0 0.0
2016-Jun-21 06:32N 34°35' E 135°26'0 0.0
2016-Jun-21 04:32N 34°35' E 135°26'0 0.0
2016-Jun-21 03:32N 34°35' E 135°26'7 6.8
2016-Jun-21 02:33N 34°33' E 135°18'1312.9
2016-Jun-21 01:33N 34°23' E 135°07'  
2016-Jun-18 13:33N 34°02' E 134°59'1312.2
2016-Jun-18 12:31N 34°14' E 134°58'1010.3
2016-Jun-18 11:33N 34°24' E 135°03'1111.5
2016-Jun-18 10:34N 34°31' E 135°13'1110.9
2016-Jun-18 09:33N 34°35' E 135°25'1 0.8
2016-Jun-18 08:34N 34°35' E 135°26'0 0.0
2016-Jun-18 07:33N 34°35' E 135°26'0 0.0
2016-Jun-18 06:34N 34°35' E 135°26'0 0.0
2016-Jun-18 05:27N 34°35' E 135°26'0 0.0
2016-Jun-18 04:29N 34°35' E 135°26'4 3.9
2016-Jun-18 03:33N 34°36' E 135°22'1313.2
2016-Jun-18 02:33N 34°35' E 135°06'  
2016-Jun-15 13:30N 34°37' E 135°01'1011.0
2016-Jun-15 12:33N 34°36' E 135°14'10 9.8
2016-Jun-15 11:33N 34°35' E 135°26'0 0.0
2016-Jun-15 06:06N 34°35' E 135°26'1 1.1
2016-Jun-15 05:32N 34°35' E 135°25'1 1.1
2016-Jun-15 04:09N 34°35' E 135°27'0 0.0
2016-Jun-14 19:14N 34°35' E 135°27'0 0.0
2016-Jun-14 18:32N 34°35' E 135°27'0 0.0
2016-Jun-14 17:32N 34°35' E 135°27'0 0.0
2016-Jun-14 16:32N 34°35' E 135°27'0 0.0
2016-Jun-14 15:26N 34°35' E 135°27'0 0.0
2016-Jun-14 14:32N 34°35' E 135°27'0 0.0
2016-Jun-14 13:32N 34°35' E 135°27'0 0.0
2016-Jun-14 12:32N 34°35' E 135°27'0 0.0
2016-Jun-14 11:26N 34°35' E 135°27'0 0.0
2016-Jun-14 10:32N 34°35' E 135°27'8 7.7
2016-Jun-14 09:33N 34°33' E 135°18'1312.9
2016-Jun-14 08:33N 34°24' E 135°07'1312.4
2016-Jun-14 07:31N 34°12' E 134°60'23210.0
2016-Jun-13 08:19N 35°04' E 139°35'1012.8
2016-Jun-13 07:33N 35°10' E 139°44'1212.4
2016-Jun-13 06:33N 35°22' E 139°42'8 7.8
2016-Jun-13 05:33N 35°30' E 139°43'0 0.0
2016-Jun-13 04:31N 35°30' E 139°43'0 0.0
2016-Jun-13 03:31N 35°30' E 139°43'0 0.0
2016-Jun-13 02:31N 35°30' E 139°43'0 0.0
2016-Jun-13 01:31N 35°30' E 139°43'0 0.0
2016-Jun-13 00:31N 35°30' E 139°43'0 0.0
2016-Jun-12 23:31N 35°30' E 139°43'0 0.0
2016-Jun-12 22:33N 35°30' E 139°43'3 2.7
2016-Jun-12 21:31N 35°27' E 139°42'0 0.1
2016-Jun-12 20:31N 35°27' E 139°43'0 0.0
2016-Jun-12 19:31N 35°27' E 139°43'0 0.0
2016-Jun-12 18:31N 35°27' E 139°43'0 0.0
2016-Jun-12 17:31N 35°27' E 139°43'0 0.0
2016-Jun-12 16:31N 35°27' E 139°43'0 0.0
2016-Jun-12 15:31N 35°27' E 139°43'0 0.1
2016-Jun-12 14:31N 35°27' E 139°43'0 0.0
2016-Jun-12 13:31N 35°27' E 139°43'0 0.0
2016-Jun-12 12:31N 35°27' E 139°43'1 1.1
2016-Jun-12 11:34N 35°27' E 139°44'1110.9
2016-Jun-12 10:34N 35°16' E 139°47'  
Track history (hours):
 
Tides and Currents Weather Stations Pressure Air Temp Water Temp Dewpoint Dewpoint Depression Visibility Wind Speed Wind Dir Waves Ship Positions

Kinrikimaru

Last reported at 2016-Jun-21 13:33 UTC. Time now 2016-Jun-30 23:09 UTC.
Position N 34°01' E 134°54'.
Warning: this ship's position is 9 days out of date.

Length 76 m; draft 3.5 m.

Type: Cargo ship. MMSI: 431500615.

Date/timePositionNaut miles runAvg speedWind from/ knotsBaromVisibWave heightAir tempDewpointWater temp
2016-Jun-21 13:33N 34°01' E 134°54'2410.5
2016-Jun-21 11:13N 34°24' E 135°03'812.0
2016-Jun-21 10:33N 34°29' E 135°10'1211.9
2016-Jun-21 09:33N 34°36' E 135°22'3 3.1
2016-Jun-21 08:33N 34°35' E 135°26'0 0.0
2016-Jun-21 07:32N 34°35' E 135°26'0 0.0
2016-Jun-21 06:32N 34°35' E 135°26'0 0.0
2016-Jun-21 04:32N 34°35' E 135°26'0 0.0
2016-Jun-21 03:32N 34°35' E 135°26'7 6.8
2016-Jun-21 02:33N 34°33' E 135°18'1312.9
2016-Jun-21 01:33N 34°23' E 135°07'  
2016-Jun-18 13:33N 34°02' E 134°59'1312.2
2016-Jun-18 12:31N 34°14' E 134°58'1010.3
2016-Jun-18 11:33N 34°24' E 135°03'1111.5
2016-Jun-18 10:34N 34°31' E 135°13'1110.9
2016-Jun-18 09:33N 34°35' E 135°25'1 0.8
2016-Jun-18 08:34N 34°35' E 135°26'0 0.0
2016-Jun-18 07:33N 34°35' E 135°26'0 0.0
2016-Jun-18 06:34N 34°35' E 135°26'0 0.0
2016-Jun-18 05:27N 34°35' E 135°26'0 0.0
2016-Jun-18 04:29N 34°35' E 135°26'4 3.9
2016-Jun-18 03:33N 34°36' E 135°22'1313.2
2016-Jun-18 02:33N 34°35' E 135°06'  
2016-Jun-15 13:30N 34°37' E 135°01'1011.0
2016-Jun-15 12:33N 34°36' E 135°14'10 9.8
2016-Jun-15 11:33N 34°35' E 135°26'0 0.0
2016-Jun-15 06:06N 34°35' E 135°26'1 1.1
2016-Jun-15 05:32N 34°35' E 135°25'1 1.1
2016-Jun-15 04:09N 34°35' E 135°27'0 0.0
2016-Jun-14 19:14N 34°35' E 135°27'0 0.0
2016-Jun-14 18:32N 34°35' E 135°27'0 0.0
2016-Jun-14 17:32N 34°35' E 135°27'0 0.0
2016-Jun-14 16:32N 34°35' E 135°27'0 0.0
2016-Jun-14 15:26N 34°35' E 135°27'0 0.0
2016-Jun-14 14:32N 34°35' E 135°27'0 0.0
2016-Jun-14 13:32N 34°35' E 135°27'0 0.0
2016-Jun-14 12:32N 34°35' E 135°27'0 0.0
2016-Jun-14 11:26N 34°35' E 135°27'0 0.0
2016-Jun-14 10:32N 34°35' E 135°27'8 7.7
2016-Jun-14 09:33N 34°33' E 135°18'1312.9
2016-Jun-14 08:33N 34°24' E 135°07'1312.4
2016-Jun-14 07:31N 34°12' E 134°60'23210.0
2016-Jun-13 08:19N 35°04' E 139°35'1012.8
2016-Jun-13 07:33N 35°10' E 139°44'1212.4
2016-Jun-13 06:33N 35°22' E 139°42'8 7.8
2016-Jun-13 05:33N 35°30' E 139°43'0 0.0
2016-Jun-13 04:31N 35°30' E 139°43'0 0.0
2016-Jun-13 03:31N 35°30' E 139°43'0 0.0
2016-Jun-13 02:31N 35°30' E 139°43'0 0.0
2016-Jun-13 01:31N 35°30' E 139°43'0 0.0
2016-Jun-13 00:31N 35°30' E 139°43'0 0.0
2016-Jun-12 23:31N 35°30' E 139°43'0 0.0
2016-Jun-12 22:33N 35°30' E 139°43'3 2.7
2016-Jun-12 21:31N 35°27' E 139°42'0 0.1
2016-Jun-12 20:31N 35°27' E 139°43'0 0.0
2016-Jun-12 19:31N 35°27' E 139°43'0 0.0
2016-Jun-12 18:31N 35°27' E 139°43'0 0.0
2016-Jun-12 17:31N 35°27' E 139°43'0 0.0
2016-Jun-12 16:31N 35°27' E 139°43'0 0.0
2016-Jun-12 15:31N 35°27' E 139°43'0 0.1
2016-Jun-12 14:31N 35°27' E 139°43'0 0.0
2016-Jun-12 13:31N 35°27' E 139°43'0 0.0
2016-Jun-12 12:31N 35°27' E 139°43'1 1.1
2016-Jun-12 11:34N 35°27' E 139°44'1110.9
2016-Jun-12 10:34N 35°16' E 139°47'  

Dump ship's entire track history